Time;durP1;ratioP1;P1;durP2;ratioP2;P2;SDS_P1;SDS_P2;PMS_P1;PMS_P2;Temp;Humidity;BMP_temperature;BMP_pressure;BME280_temperature;BME280_humidity;BME280_pressure;Samples;Min_cycle;Max_cycle;Signal;HPM_P1;HPM_P2
2020/12/02 00:01:52;;;;;;;109.73;53.50;;;;;;;;;;4437190;32;20278;-65
2020/12/02 00:04:19;;;;;;;101.90;55.37;;;;;;;;;;4436304;32;20306;-64
2020/12/02 00:06:45;;;;;;;128.93;59.97;;;;;;;;;;4433444;32;20784;-67
2020/12/02 00:09:14;;;;;;;116.60;59.60;;;;;;;;;;4437269;32;20430;-67
2020/12/02 00:11:39;;;;;;;117.63;59.20;;;;;;;;;;4437147;32;20334;-68
2020/12/02 00:14:11;;;;;;;118.37;60.33;;;;;;;;;;4436257;32;20335;-65
2020/12/02 00:16:36;;;;;;;95.30;48.77;;;;;;;;;;4436732;32;20744;-65
2020/12/02 00:19:02;;;;;;;81.03;44.13;;;;;;;;;;4440410;32;20272;-65
2020/12/02 00:21:30;;;;;;;78.13;42.63;;;;;;;;;;4436462;32;20299;-63
2020/12/02 00:23:57;;;;;;;74.57;39.23;;;;;;;;;;4435883;32;20189;-64
2020/12/02 00:26:23;;;;;;;73.60;39.50;;;;;;;;;;4435889;32;20787;-60
2020/12/02 00:28:49;;;;;;;76.47;40.43;;;;;;;;;;4435743;32;20728;-60
2020/12/02 00:31:15;;;;;;;101.93;53.97;;;;;;;;;;4436359;32;20289;-60
2020/12/02 00:33:41;;;;;;;113.77;63.77;;;;;;;;;;4436459;32;20299;-60
2020/12/02 00:36:06;;;;;;;111.20;63.63;;;;;;;;;;4435716;32;20274;-61
2020/12/02 00:38:32;;;;;;;103.43;56.50;;;;;;;;;;4443076;32;20291;-61
2020/12/02 00:40:57;;;;;;;139.43;61.83;;;;;;;;;;4436843;32;20225;-60
2020/12/02 00:43:26;;;;;;;118.73;58.23;;;;;;;;;;4435200;32;20296;-60
2020/12/02 00:45:58;;;;;;;105.30;54.73;;;;;;;;;;4436303;32;20283;-60
2020/12/02 00:48:25;;;;;;;96.77;53.03;;;;;;;;;;4435360;32;20236;-60
2020/12/02 00:50:51;;;;;;;89.50;50.47;;;;;;;;;;4436438;32;20567;-59
2020/12/02 00:53:29;;;;;;;82.77;45.93;;;;;;;;;;4435394;32;20293;-60
2020/12/02 00:55:56;;;;;;;79.80;42.57;;;;;;;;;;4433745;32;20356;-59
2020/12/02 00:58:43;;;;;;;79.17;43.03;;;;;;;;;;4439852;32;20312;-60
2020/12/02 01:01:12;;;;;;;83.63;42.47;;;;;;;;;;4436197;32;20570;-59
2020/12/02 01:03:39;;;;;;;84.00;46.10;;;;;;;;;;4433639;32;20235;-60
2020/12/02 01:06:08;;;;;;;82.73;45.33;;;;;;;;;;4430874;32;20225;-59
2020/12/02 01:08:36;;;;;;;91.87;47.90;;;;;;;;;;4434318;32;20224;-59
2020/12/02 01:11:25;;;;;;;103.67;51.67;;;;;;;;;;4434006;32;20351;-59
2020/12/02 01:13:58;;;;;;;68.00;37.03;;;;;;;;;;4432951;32;20262;-59
2020/12/02 01:16:31;;;;;;;50.57;28.30;;;;;;;;;;4433319;32;20662;-58
2020/12/02 01:18:57;;;;;;;64.47;33.10;;;;;;;;;;4428845;32;20200;-59
2020/12/02 01:21:38;;;;;;;60.53;34.80;;;;;;;;;;4433900;32;20871;-59
2020/12/02 01:24:10;;;;;;;63.60;34.77;;;;;;;;;;4422916;32;20229;-59
2020/12/02 01:26:43;;;;;;;81.10;44.20;;;;;;;;;;4433169;32;20248;-59
2020/12/02 01:29:24;;;;;;;121.27;67.13;;;;;;;;;;4419080;32;20535;-61
2020/12/02 01:31:55;;;;;;;107.13;62.13;;;;;;;;;;4433196;32;20397;-60
2020/12/02 01:34:22;;;;;;;103.23;60.30;;;;;;;;;;4432346;32;20320;-60
2020/12/02 01:37:05;;;;;;;120.83;70.07;;;;;;;;;;4432739;32;20201;-59
2020/12/02 01:40:00;;;;;;;100.03;62.27;;;;;;;;;;4432458;32;20340;-59
2020/12/02 01:42:26;;;;;;;107.07;58.80;;;;;;;;;;4417388;32;20237;-59
2020/12/02 01:44:52;;;;;;;114.80;64.03;;;;;;;;;;4432249;32;20382;-63
2020/12/02 01:47:54;;;;;;;115.20;66.27;;;;;;;;;;4432972;32;20228;-63
2020/12/02 01:50:34;;;;;;;101.80;61.37;;;;;;;;;;4400678;32;20209;-63
2020/12/02 01:53:09;;;;;;;79.83;41.93;;;;;;;;;;4402764;32;20272;-63
2020/12/02 01:55:45;;;;;;;61.77;34.47;;;;;;;;;;4402038;32;20657;-63
2020/12/02 01:58:39;;;;;;;50.47;30.10;;;;;;;;;;4405012;32;20576;-65
2020/12/02 02:01:13;;;;;;;53.40;31.23;;;;;;;;;;4395684;32;20241;-62
2020/12/02 02:03:39;;;;;;;65.77;32.33;;;;;;;;;;4401176;32;20289;-62
2020/12/02 02:06:14;;;;;;;61.03;32.53;;;;;;;;;;4401960;32;20258;-62
2020/12/02 02:08:42;;;;;;;70.73;40.53;;;;;;;;;;4404920;32;20209;-61
2020/12/02 02:11:10;;;;;;;78.03;41.13;;;;;;;;;;4402770;32;20653;-63
2020/12/02 02:13:48;;;;;;;75.23;42.00;;;;;;;;;;4401171;32;20216;-62
2020/12/02 02:16:39;;;;;;;79.83;41.80;;;;;;;;;;4401748;32;20228;-61
2020/12/02 02:19:04;;;;;;;66.90;38.10;;;;;;;;;;4396005;32;20233;-60
2020/12/02 02:21:33;;;;;;;60.53;32.30;;;;;;;;;;4402222;32;20701;-61
2020/12/02 02:23:58;;;;;;;57.77;31.93;;;;;;;;;;4401992;32;20280;-61
2020/12/02 02:26:39;;;;;;;58.87;32.57;;;;;;;;;;4401750;32;20244;-60
2020/12/02 02:29:10;;;;;;;62.63;34.50;;;;;;;;;;4396146;32;20208;-60
2020/12/02 02:31:51;;;;;;;66.47;33.70;;;;;;;;;;4401247;32;20678;-60
2020/12/02 02:34:17;;;;;;;55.93;31.50;;;;;;;;;;4393793;32;20202;-61
2020/12/02 02:36:42;;;;;;;72.20;39.93;;;;;;;;;;4403145;32;20299;-60
2020/12/02 02:39:10;;;;;;;81.70;44.37;;;;;;;;;;4407299;32;20789;-61
2020/12/02 02:41:36;;;;;;;83.13;47.63;;;;;;;;;;4402314;32;20330;-60
2020/12/02 02:44:02;;;;;;;97.70;53.10;;;;;;;;;;4401641;32;20439;-60
2020/12/02 02:46:27;;;;;;;112.10;64.90;;;;;;;;;;4401350;32;20257;-60
2020/12/02 02:48:53;;;;;;;107.00;57.60;;;;;;;;;;4423453;32;20321;-60
2020/12/02 02:51:18;;;;;;;102.47;55.47;;;;;;;;;;4431318;32;20279;-60
2020/12/02 02:53:44;;;;;;;80.33;43.60;;;;;;;;;;4432524;32;20280;-60
2020/12/02 02:56:14;;;;;;;77.00;41.53;;;;;;;;;;4428543;32;20244;-60
2020/12/02 02:58:39;;;;;;;65.93;35.90;;;;;;;;;;4436328;32;20268;-63
2020/12/02 03:01:05;;;;;;;69.43;39.53;;;;;;;;;;4431814;32;20244;-62
2020/12/02 03:03:31;;;;;;;68.07;38.90;;;;;;;;;;4432601;32;20645;-65
2020/12/02 03:05:58;;;;;;;77.77;43.70;;;;;;;;;;4429595;32;20332;-61
2020/12/02 03:08:24;;;;;;;88.20;46.13;;;;;;;;;;4430668;32;20272;-61
2020/12/02 03:10:49;;;;;;;80.43;44.83;;;;;;;;;;4431231;32;20355;-62
2020/12/02 03:13:18;;;;;;;84.10;43.47;;;;;;;;;;4417818;32;20280;-61
2020/12/02 03:15:43;;;;;;;90.13;40.93;;;;;;;;;;4431033;32;20250;-61
2020/12/02 03:18:09;;;;;;;75.40;41.50;;;;;;;;;;4433732;32;20308;-62
2020/12/02 03:20:41;;;;;;;71.67;40.60;;;;;;;;;;4430580;32;20310;-61
2020/12/02 03:23:10;;;;;;;87.13;41.60;;;;;;;;;;4431728;32;20224;-61
2020/12/02 03:25:37;;;;;;;74.80;41.40;;;;;;;;;;4430802;32;20291;-61
2020/12/02 03:28:02;;;;;;;60.90;32.97;;;;;;;;;;4433412;32;20258;-61
2020/12/02 03:30:28;;;;;;;69.67;33.60;;;;;;;;;;4430925;32;20380;-61
2020/12/02 03:32:54;;;;;;;71.37;39.00;;;;;;;;;;4431653;32;20342;-61
2020/12/02 03:35:20;;;;;;;71.13;39.63;;;;;;;;;;4431537;32;20672;-61
2020/12/02 03:37:45;;;;;;;67.10;39.00;;;;;;;;;;4432408;32;20273;-61
2020/12/02 03:40:11;;;;;;;67.17;36.87;;;;;;;;;;4431214;32;20216;-60
2020/12/02 03:42:37;;;;;;;64.77;34.00;;;;;;;;;;4431429;32;20529;-62
2020/12/02 03:45:07;;;;;;;56.67;32.87;;;;;;;;;;4431125;32;20634;-62
2020/12/02 03:47:33;;;;;;;51.57;30.90;;;;;;;;;;4425613;32;20244;-62
2020/12/02 03:49:58;;;;;;;53.07;30.17;;;;;;;;;;4430883;32;20701;-62
2020/12/02 03:52:24;;;;;;;43.17;25.20;;;;;;;;;;4426407;32;20220;-62
2020/12/02 03:54:49;;;;;;;39.47;22.67;;;;;;;;;;4426816;32;20276;-62
2020/12/02 03:57:15;;;;;;;43.17;23.77;;;;;;;;;;4422695;32;20228;-62
2020/12/02 03:59:40;;;;;;;42.17;21.43;;;;;;;;;;4431078;32;20271;-62
2020/12/02 04:02:06;;;;;;;46.73;23.73;;;;;;;;;;4431749;32;20537;-62
2020/12/02 04:04:32;;;;;;;49.90;24.17;;;;;;;;;;4431313;32;20368;-62
2020/12/02 04:06:58;;;;;;;52.67;27.93;;;;;;;;;;4431331;32;20272;-62
2020/12/02 04:09:23;;;;;;;55.60;27.60;;;;;;;;;;4431372;32;20346;-62
2020/12/02 04:11:49;;;;;;;56.50;32.20;;;;;;;;;;4429411;32;20749;-62
2020/12/02 04:14:14;;;;;;;66.33;36.73;;;;;;;;;;4422381;32;20275;-62
2020/12/02 04:16:40;;;;;;;75.40;36.63;;;;;;;;;;4427995;32;20228;-62
2020/12/02 04:19:05;;;;;;;67.37;36.80;;;;;;;;;;4419835;32;20326;-62
2020/12/02 04:21:31;;;;;;;63.30;36.03;;;;;;;;;;4431464;32;20212;-63
2020/12/02 04:23:57;;;;;;;57.13;31.60;;;;;;;;;;4420838;32;20338;-63
2020/12/02 04:26:24;;;;;;;56.20;31.00;;;;;;;;;;4430918;32;20268;-62
2020/12/02 04:28:50;;;;;;;62.10;32.70;;;;;;;;;;4427535;32;20816;-62
2020/12/02 04:31:16;;;;;;;67.07;35.37;;;;;;;;;;4431011;32;20212;-60
2020/12/02 04:33:41;;;;;;;72.90;40.73;;;;;;;;;;4418335;32;20316;-61
2020/12/02 04:36:08;;;;;;;84.70;43.27;;;;;;;;;;4430722;32;20229;-60
2020/12/02 04:38:34;;;;;;;76.37;43.53;;;;;;;;;;4428508;32;20304;-60
2020/12/02 04:41:04;;;;;;;87.43;44.77;;;;;;;;;;4433866;32;20674;-59
2020/12/02 04:43:36;;;;;;;77.37;42.50;;;;;;;;;;4434061;32;20293;-59
2020/12/02 04:46:09;;;;;;;89.03;45.43;;;;;;;;;;4432220;32;20304;-60
2020/12/02 04:48:35;;;;;;;91.40;50.00;;;;;;;;;;4429963;32;20205;-62
2020/12/02 04:51:04;;;;;;;89.03;48.40;;;;;;;;;;4433614;32;20212;-62
2020/12/02 04:53:31;;;;;;;76.83;42.33;;;;;;;;;;4423738;32;20291;-64
2020/12/02 04:55:57;;;;;;;69.07;38.73;;;;;;;;;;4433300;32;20276;-62
2020/12/02 04:58:30;;;;;;;68.53;35.77;;;;;;;;;;4429839;32;20628;-63
2020/12/02 05:01:13;;;;;;;61.57;34.90;;;;;;;;;;4433835;32;20265;-63
2020/12/02 05:03:53;;;;;;;76.73;39.13;;;;;;;;;;4433423;32;20237;-62
2020/12/02 05:06:43;;;;;;;80.90;40.87;;;;;;;;;;4422846;32;20329;-60
2020/12/02 05:09:23;;;;;;;71.90;40.20;;;;;;;;;;4411720;32;20298;-59
2020/12/02 05:12:00;;;;;;;80.07;46.47;;;;;;;;;;4433432;32;20346;-60
2020/12/02 05:14:35;;;;;;;71.70;44.77;;;;;;;;;;4432837;32;20212;-60
2020/12/02 05:17:11;;;;;;;92.23;50.23;;;;;;;;;;4433763;32;20251;-64
2020/12/02 05:19:36;;;;;;;101.10;55.17;;;;;;;;;;4431210;32;20304;-64
2020/12/02 05:22:09;;;;;;;112.37;62.93;;;;;;;;;;4433079;32;20261;-63
2020/12/02 05:24:47;;;;;;;107.70;60.20;;;;;;;;;;4433354;32;20566;-63
2020/12/02 05:27:19;;;;;;;102.13;55.20;;;;;;;;;;4433581;32;20259;-63
2020/12/02 05:29:50;;;;;;;90.77;52.47;;;;;;;;;;4429315;32;20192;-62
2020/12/02 05:32:28;;;;;;;100.33;52.77;;;;;;;;;;4432398;32;20201;-62
2020/12/02 05:34:55;;;;;;;107.80;53.93;;;;;;;;;;4432910;32;20275;-65
2020/12/02 05:37:37;;;;;;;122.37;61.67;;;;;;;;;;4429092;32;20237;-65
2020/12/02 05:40:06;;;;;;;134.97;65.40;;;;;;;;;;4429684;32;20204;-65
2020/12/02 05:42:38;;;;;;;144.60;71.73;;;;;;;;;;4432258;32;20229;-65
2020/12/02 05:45:14;;;;;;;147.27;73.87;;;;;;;;;;4432678;32;20225;-65
2020/12/02 05:47:41;;;;;;;182.97;85.27;;;;;;;;;;4431624;32;20314;-64
2020/12/02 05:50:12;;;;;;;203.90;96.13;;;;;;;;;;4432434;32;20285;-64
2020/12/02 05:52:39;;;;;;;218.63;101.97;;;;;;;;;;4432894;32;20259;-64
2020/12/02 05:55:40;;;;;;;211.77;100.20;;;;;;;;;;4433032;32;20554;-61
2020/12/02 05:58:08;;;;;;;228.77;111.00;;;;;;;;;;4418493;32;20351;-62
2020/12/02 06:00:34;;;;;;;243.60;108.83;;;;;;;;;;4432915;32;20317;-62
2020/12/02 06:03:01;;;;;;;205.67;96.33;;;;;;;;;;4432174;32;20213;-60
2020/12/02 06:05:28;;;;;;;218.47;99.67;;;;;;;;;;4432834;32;20558;-60
2020/12/02 06:07:57;;;;;;;191.07;94.77;;;;;;;;;;4424487;32;20263;-61
2020/12/02 06:10:50;;;;;;;175.97;85.93;;;;;;;;;;4431378;32;20634;-67
2020/12/02 06:13:42;;;;;;;165.07;84.37;;;;;;;;;;4400104;32;20273;-67
2020/12/02 06:16:10;;;;;;;163.23;86.17;;;;;;;;;;4429734;32;20368;-67
2020/12/02 06:18:37;;;;;;;186.77;92.93;;;;;;;;;;4432420;32;20647;-67
2020/12/02 06:21:03;;;;;;;167.60;90.07;;;;;;;;;;4431978;32;20350;-67
2020/12/02 06:23:45;;;;;;;190.30;97.47;;;;;;;;;;4430887;32;20706;-62
2020/12/02 06:26:11;;;;;;;192.03;95.27;;;;;;;;;;4421356;32;20217;-63
2020/12/02 06:28:36;;;;;;;182.87;93.53;;;;;;;;;;4431503;32;20699;-57
2020/12/02 06:31:31;;;;;;;179.23;95.97;;;;;;;;;;4432430;32;20285;-60
2020/12/02 06:34:02;;;;;;;198.20;102.20;;;;;;;;;;4429224;32;20267;-61
2020/12/02 06:36:34;;;;;;;223.20;113.63;;;;;;;;;;4413850;32;20237;-61
2020/12/02 06:39:09;;;;;;;201.83;105.63;;;;;;;;;;4423836;32;20295;-58
2020/12/02 06:41:40;;;;;;;212.37;101.77;;;;;;;;;;4428469;32;20630;-59
2020/12/02 06:44:11;;;;;;;206.10;99.50;;;;;;;;;;4430005;32;20693;-62
2020/12/02 06:46:52;;;;;;;202.80;102.83;;;;;;;;;;4425782;32;20823;-62
2020/12/02 06:49:17;;;;;;;204.30;104.27;;;;;;;;;;4427451;32;20206;-62
2020/12/02 06:51:55;;;;;;;187.43;100.90;;;;;;;;;;4432071;32;20312;-59
2020/12/02 06:54:20;;;;;;;190.67;100.53;;;;;;;;;;4431158;32;20229;-61
2020/12/02 06:56:46;;;;;;;214.87;107.20;;;;;;;;;;4432324;32;20697;-61
2020/12/02 06:59:11;;;;;;;210.00;106.67;;;;;;;;;;4431715;32;20721;-61
2020/12/02 07:01:38;;;;;;;202.17;105.30;;;;;;;;;;4431062;32;20284;-60
2020/12/02 07:04:06;;;;;;;199.77;102.87;;;;;;;;;;4428983;32;20732;-63
2020/12/02 07:06:32;;;;;;;209.27;100.50;;;;;;;;;;4430251;32;20256;-61
2020/12/02 07:09:13;;;;;;;186.20;105.07;;;;;;;;;;4436173;32;20724;-60
2020/12/02 07:11:48;;;;;;;205.63;110.30;;;;;;;;;;4438687;32;20371;-60
2020/12/02 07:14:20;;;;;;;188.43;103.23;;;;;;;;;;4437374;32;20252;-60
2020/12/02 07:16:45;;;;;;;176.50;96.60;;;;;;;;;;4430065;32;20264;-65
2020/12/02 07:19:13;;;;;;;184.20;99.73;;;;;;;;;;4406945;32;20821;-65
2020/12/02 07:21:54;;;;;;;181.33;94.10;;;;;;;;;;4429619;32;20353;-66
2020/12/02 07:24:24;;;;;;;211.67;116.30;;;;;;;;;;4424904;32;20614;-67
2020/12/02 07:26:50;;;;;;;200.30;102.80;;;;;;;;;;4426947;32;20307;-66
2020/12/02 07:29:18;;;;;;;236.47;127.37;;;;;;;;;;4430569;32;20308;-66
2020/12/02 07:31:44;;;;;;;155.77;87.97;;;;;;;;;;4431234;32;20650;-67
2020/12/02 07:34:15;;;;;;;140.63;78.30;;;;;;;;;;4431397;32;20310;-65
2020/12/02 07:36:41;;;;;;;130.90;70.60;;;;;;;;;;4428234;32;20228;-65
2020/12/02 07:39:17;;;;;;;133.57;71.03;;;;;;;;;;4431134;32;20251;-64
2020/12/02 07:42:10;;;;;;;128.23;73.90;;;;;;;;;;4428986;32;20371;-63
2020/12/02 07:44:41;;;;;;;139.97;76.93;;;;;;;;;;4431708;32;20313;-63
2020/12/02 07:47:11;;;;;;;138.77;77.27;;;;;;;;;;4412419;32;20551;-64
2020/12/02 07:49:44;;;;;;;164.97;88.23;;;;;;;;;;4428003;32;20244;-59
2020/12/02 07:52:21;;;;;;;163.37;91.67;;;;;;;;;;4425657;32;20310;-63
2020/12/02 07:54:52;;;;;;;183.40;96.90;;;;;;;;;;4431440;32;20208;-64
2020/12/02 07:57:18;;;;;;;169.17;96.07;;;;;;;;;;4431007;32;20265;-64
2020/12/02 08:00:04;;;;;;;184.33;104.50;;;;;;;;;;4431823;32;20268;-64
2020/12/02 08:02:38;;;;;;;187.20;106.97;;;;;;;;;;4423369;32;20224;-64
2020/12/02 08:05:20;;;;;;;187.37;103.93;;;;;;;;;;4432181;32;20239;-64
2020/12/02 08:08:01;;;;;;;186.63;105.87;;;;;;;;;;4431712;32;20232;-64
2020/12/02 08:10:36;;;;;;;192.77;106.20;;;;;;;;;;4432156;32;20627;-65
2020/12/02 08:13:12;;;;;;;212.73;111.80;;;;;;;;;;4433992;32;20201;-64
2020/12/02 08:15:49;;;;;;;209.77;113.27;;;;;;;;;;4435216;32;20309;-63
2020/12/02 08:18:19;;;;;;;206.30;112.70;;;;;;;;;;4434796;32;20242;-62
2020/12/02 08:20:45;;;;;;;207.57;115.70;;;;;;;;;;4435454;32;20256;-61
2020/12/02 08:23:12;;;;;;;197.13;107.07;;;;;;;;;;4434860;32;20356;-62
2020/12/02 08:25:45;;;;;;;157.60;91.37;;;;;;;;;;4434957;32;20610;-61
2020/12/02 08:28:22;;;;;;;168.63;93.63;;;;;;;;;;4433707;32;20228;-62
2020/12/02 08:30:59;;;;;;;158.90;90.07;;;;;;;;;;4435268;32;20233;-62
2020/12/02 08:33:24;;;;;;;169.70;95.37;;;;;;;;;;4431161;32;20460;-63
2020/12/02 08:35:50;;;;;;;166.60;95.57;;;;;;;;;;4435004;32;20289;-62
2020/12/02 08:38:21;;;;;;;186.37;104.27;;;;;;;;;;4434679;32;20409;-63
2020/12/02 08:40:49;;;;;;;189.43;102.60;;;;;;;;;;4435354;32;20538;-63
2020/12/02 08:43:35;;;;;;;165.73;96.70;;;;;;;;;;4435058;32;20258;-65
2020/12/02 08:46:11;;;;;;;173.87;101.33;;;;;;;;;;4434998;32;20220;-64
2020/12/02 08:48:39;;;;;;;174.43;95.97;;;;;;;;;;4435136;32;20288;-65
2020/12/02 08:51:12;;;;;;;173.00;96.43;;;;;;;;;;4426807;32;20350;-64
2020/12/02 08:53:38;;;;;;;167.93;94.07;;;;;;;;;;4426510;32;20227;-64
2020/12/02 08:56:04;;;;;;;162.07;88.00;;;;;;;;;;4433371;32;20354;-64
2020/12/02 08:58:30;;;;;;;147.67;86.17;;;;;;;;;;4428281;32;20322;-64
2020/12/02 09:00:55;;;;;;;127.23;73.93;;;;;;;;;;4427310;32;20594;-63
2020/12/02 09:03:25;;;;;;;128.07;75.33;;;;;;;;;;4429278;32;20212;-60
2020/12/02 09:05:51;;;;;;;124.23;66.87;;;;;;;;;;4432262;32;20311;-64
2020/12/02 09:08:16;;;;;;;179.70;90.17;;;;;;;;;;4433318;32;20368;-65
2020/12/02 09:10:42;;;;;;;119.80;66.57;;;;;;;;;;4431380;32;20286;-65
2020/12/02 09:13:07;;;;;;;133.27;74.73;;;;;;;;;;4431642;32;20347;-66
2020/12/02 09:15:33;;;;;;;123.80;67.33;;;;;;;;;;4425845;32;20229;-66
2020/12/02 09:17:58;;;;;;;107.17;61.70;;;;;;;;;;4431612;32;20307;-65
2020/12/02 09:20:25;;;;;;;80.70;48.00;;;;;;;;;;4432249;32;20531;-66
2020/12/02 09:22:51;;;;;;;77.90;44.73;;;;;;;;;;4426836;32;20224;-65
2020/12/02 09:25:17;;;;;;;70.43;42.87;;;;;;;;;;4420696;32;20308;-69
2020/12/02 09:27:44;;;;;;;92.83;48.80;;;;;;;;;;4433102;32;20709;-66
2020/12/02 09:30:10;;;;;;;96.23;49.37;;;;;;;;;;4430120;32;20312;-67
2020/12/02 09:32:36;;;;;;;70.77;41.60;;;;;;;;;;4417092;32;20248;-65
2020/12/02 09:35:02;;;;;;;68.33;40.10;;;;;;;;;;4430102;32;20267;-66
2020/12/02 09:37:28;;;;;;;74.00;43.03;;;;;;;;;;4427983;32;20228;-60
2020/12/02 09:39:57;;;;;;;88.17;48.67;;;;;;;;;;4429078;32;20364;-61
2020/12/02 09:42:54;;;;;;;61.67;36.13;;;;;;;;;;4430263;32;20642;-59
2020/12/02 09:45:26;;;;;;;65.97;39.13;;;;;;;;;;4428966;32;20317;-60
2020/12/02 09:47:53;;;;;;;79.37;37.77;;;;;;;;;;4423476;32;20297;-60
2020/12/02 09:50:20;;;;;;;64.87;37.77;;;;;;;;;;4430796;32;20293;-60
2020/12/02 09:52:47;;;;;;;68.70;39.80;;;;;;;;;;4432944;32;20232;-61
2020/12/02 09:55:23;;;;;;;81.00;40.43;;;;;;;;;;4421592;32;20229;-61
2020/12/02 09:57:49;;;;;;;80.20;40.40;;;;;;;;;;4419370;32;20303;-61
2020/12/02 10:00:16;;;;;;;72.00;42.87;;;;;;;;;;4413889;32;20314;-60
2020/12/02 10:02:50;;;;;;;71.07;41.60;;;;;;;;;;4427831;32;20376;-61
2020/12/02 10:05:34;;;;;;;70.63;40.73;;;;;;;;;;4415974;32;20585;-62
2020/12/02 10:08:21;;;;;;;56.63;34.93;;;;;;;;;;4430906;32;20366;-60
2020/12/02 10:11:16;;;;;;;77.70;40.50;;;;;;;;;;4430964;32;20240;-60
2020/12/02 10:14:18;;;;;;;78.20;43.70;;;;;;;;;;4432314;32;20200;-61
2020/12/02 10:16:52;;;;;;;77.43;40.70;;;;;;;;;;4426260;32;20276;-60
2020/12/02 10:19:48;;;;;;;64.73;37.30;;;;;;;;;;4430911;32;20283;-61
2020/12/02 10:22:32;;;;;;;60.27;38.13;;;;;;;;;;4425889;32;20217;-61
2020/12/02 10:25:16;;;;;;;75.67;39.63;;;;;;;;;;4429495;32;20228;-61
2020/12/02 10:28:00;;;;;;;79.73;45.63;;;;;;;;;;4426900;32;20717;-61
2020/12/02 10:30:31;;;;;;;50.77;28.47;;;;;;;;;;4430812;32;20224;-60
2020/12/02 10:33:40;;;;;;;49.53;30.43;;;;;;;;;;4431857;32;20261;-61
2020/12/02 10:36:06;;;;;;;51.37;28.33;;;;;;;;;;4432536;32;20657;-62
2020/12/02 10:38:40;;;;;;;46.17;29.37;;;;;;;;;;4414331;32;20379;-60
2020/12/02 10:41:44;;;;;;;46.03;25.67;;;;;;;;;;4431691;32;20239;-62
2020/12/02 10:44:54;;;;;;;47.73;25.53;;;;;;;;;;4402476;32;20639;-57
2020/12/02 10:47:28;;;;;;;43.53;24.27;;;;;;;;;;4420236;32;20351;-56
2020/12/02 10:49:55;;;;;;;43.67;25.80;;;;;;;;;;4432207;32;20216;-57
2020/12/02 10:52:21;;;;;;;51.20;28.27;;;;;;;;;;4428919;32;20236;-57
2020/12/02 10:54:50;;;;;;;48.00;26.13;;;;;;;;;;4417980;32;20314;-56
2020/12/02 10:57:22;;;;;;;47.10;29.57;;;;;;;;;;4431314;32;20307;-57
2020/12/02 10:59:56;;;;;;;43.50;27.17;;;;;;;;;;4428935;32;20352;-57
2020/12/02 11:02:27;;;;;;;39.43;24.27;;;;;;;;;;4431274;32;20233;-56
2020/12/02 11:04:53;;;;;;;70.27;34.23;;;;;;;;;;4430353;32;20209;-56
2020/12/02 11:07:25;;;;;;;38.93;24.13;;;;;;;;;;4428371;32;20266;-57
2020/12/02 11:09:55;;;;;;;41.23;22.43;;;;;;;;;;4439977;32;20308;-57
2020/12/02 11:12:38;;;;;;;38.50;22.10;;;;;;;;;;4431852;32;20209;-57
2020/12/02 11:15:19;;;;;;;51.93;24.67;;;;;;;;;;4431221;32;20538;-59
2020/12/02 11:18:12;;;;;;;201.87;74.17;;;;;;;;;;4432638;32;20231;-59
2020/12/02 11:20:56;;;;;;;44.70;26.93;;;;;;;;;;4431391;32;20228;-59
2020/12/02 11:23:50;;;;;;;42.20;25.67;;;;;;;;;;4423769;32;20661;-59
2020/12/02 11:26:29;;;;;;;36.77;23.40;;;;;;;;;;4431792;32;20246;-59
2020/12/02 11:28:57;;;;;;;42.40;25.77;;;;;;;;;;4435157;32;20274;-59
2020/12/02 11:31:31;;;;;;;44.70;26.80;;;;;;;;;;4431365;32;20290;-59
2020/12/02 11:34:02;;;;;;;46.93;28.50;;;;;;;;;;4433097;32;20226;-59
2020/12/02 11:36:38;;;;;;;42.53;26.83;;;;;;;;;;4431969;32;20258;-59
2020/12/02 11:39:30;;;;;;;48.27;27.27;;;;;;;;;;4430372;32;20774;-60
2020/12/02 11:42:33;;;;;;;41.20;27.03;;;;;;;;;;4431329;32;20239;-59
2020/12/02 11:45:01;;;;;;;54.43;30.10;;;;;;;;;;4430822;32;20526;-59
2020/12/02 11:47:45;;;;;;;66.37;31.00;;;;;;;;;;4426978;32;20240;-59
2020/12/02 11:50:35;;;;;;;71.93;33.53;;;;;;;;;;4437790;32;20339;-59
2020/12/02 11:53:15;;;;;;;48.13;27.73;;;;;;;;;;4432489;32;20228;-59
2020/12/02 11:55:41;;;;;;;57.87;31.30;;;;;;;;;;4431826;32;20236;-59
2020/12/02 11:58:10;;;;;;;74.73;35.93;;;;;;;;;;4434536;32;20247;-60
2020/12/02 12:00:35;;;;;;;111.23;49.03;;;;;;;;;;4431390;32;20319;-59
2020/12/02 12:03:16;;;;;;;88.10;44.17;;;;;;;;;;4432653;32;20603;-59
2020/12/02 12:06:01;;;;;;;84.27;45.43;;;;;;;;;;4431091;32;20216;-60
2020/12/02 12:08:47;;;;;;;50.50;27.93;;;;;;;;;;4437349;32;20627;-59
2020/12/02 12:11:26;;;;;;;54.63;33.63;;;;;;;;;;4423150;32;20224;-59
2020/12/02 12:13:57;;;;;;;59.17;36.03;;;;;;;;;;4432439;32;20307;-59
2020/12/02 12:16:34;;;;;;;58.17;31.87;;;;;;;;;;4431901;32;20286;-60
2020/12/02 12:19:27;;;;;;;82.13;49.93;;;;;;;;;;4431316;32;20306;-59
2020/12/02 12:21:58;;;;;;;44.43;25.60;;;;;;;;;;4417516;32;20752;-60
2020/12/02 12:24:24;;;;;;;51.67;30.13;;;;;;;;;;4428725;32;20646;-60
2020/12/02 12:26:53;;;;;;;53.13;32.90;;;;;;;;;;4430946;32;20329;-61
2020/12/02 12:29:19;;;;;;;42.07;27.77;;;;;;;;;;4430127;32;20240;-59
2020/12/02 12:31:52;;;;;;;57.13;29.33;;;;;;;;;;4431157;32;20297;-59
2020/12/02 12:34:25;;;;;;;51.57;29.80;;;;;;;;;;4432658;32;20227;-59
2020/12/02 12:36:55;;;;;;;52.57;32.03;;;;;;;;;;4431459;32;20224;-59
2020/12/02 12:39:31;;;;;;;53.50;30.17;;;;;;;;;;4428285;32;20335;-59
2020/12/02 12:41:57;;;;;;;54.67;30.73;;;;;;;;;;4430709;32;20637;-59
2020/12/02 12:44:33;;;;;;;65.93;42.37;;;;;;;;;;4430992;32;20717;-60
2020/12/02 12:47:19;;;;;;;50.43;32.50;;;;;;;;;;4429081;32;20243;-60
2020/12/02 12:49:44;;;;;;;71.63;46.80;;;;;;;;;;4432491;32;20212;-59
2020/12/02 12:52:14;;;;;;;71.37;45.17;;;;;;;;;;4421545;32;20243;-60
2020/12/02 12:54:42;;;;;;;69.23;42.27;;;;;;;;;;4416420;32;20298;-60
2020/12/02 12:57:12;;;;;;;68.17;40.97;;;;;;;;;;4418494;32;20254;-59
2020/12/02 12:59:38;;;;;;;71.70;40.53;;;;;;;;;;4434140;32;20213;-59
2020/12/02 13:02:05;;;;;;;68.17;39.73;;;;;;;;;;4427383;32;20233;-59
2020/12/02 13:04:30;;;;;;;77.13;46.30;;;;;;;;;;4433019;32;20219;-59
2020/12/02 13:07:35;;;;;;;69.80;42.83;;;;;;;;;;4433156;32;20291;-59
2020/12/02 13:10:28;;;;;;;84.37;43.00;;;;;;;;;;4365148;32;20226;-59
2020/12/02 13:13:27;;;;;;;92.23;43.13;;;;;;;;;;4432841;32;20220;-59
2020/12/02 13:16:04;;;;;;;67.90;40.87;;;;;;;;;;4432902;32;20323;-59
2020/12/02 13:18:49;;;;;;;115.17;57.80;;;;;;;;;;4433315;32;20283;-59
2020/12/02 13:21:17;;;;;;;84.63;41.80;;;;;;;;;;4419670;32;20652;-59
2020/12/02 13:23:51;;;;;;;138.93;64.70;;;;;;;;;;4433147;32;20240;-59
2020/12/02 13:26:23;;;;;;;107.93;54.97;;;;;;;;;;4431374;32;20221;-58
2020/12/02 13:29:07;;;;;;;157.93;72.60;;;;;;;;;;4434807;32;20607;-59
2020/12/02 13:31:46;;;;;;;140.87;66.53;;;;;;;;;;4431491;32;20253;-59
2020/12/02 13:34:11;;;;;;;145.90;71.13;;;;;;;;;;4429935;32;20957;-59
2020/12/02 13:36:39;;;;;;;96.23;50.00;;;;;;;;;;4431781;32;20248;-59
2020/12/02 13:39:06;;;;;;;70.40;42.13;;;;;;;;;;4437003;32;20247;-60
2020/12/02 13:42:01;;;;;;;71.33;41.90;;;;;;;;;;4439393;32;20247;-59
2020/12/02 13:44:41;;;;;;;73.53;42.17;;;;;;;;;;4433338;32;20228;-59
2020/12/02 13:47:11;;;;;;;82.87;44.97;;;;;;;;;;4436171;32;20270;-59
2020/12/02 13:49:38;;;;;;;87.93;48.73;;;;;;;;;;4433615;32;20274;-60
2020/12/02 13:52:19;;;;;;;81.00;48.60;;;;;;;;;;4432839;32;20252;-59
2020/12/02 13:54:49;;;;;;;184.77;88.30;;;;;;;;;;4433268;32;20223;-59
2020/12/02 13:57:43;;;;;;;178.67;88.33;;;;;;;;;;4431844;32;20204;-58
2020/12/02 14:00:37;;;;;;;95.37;56.07;;;;;;;;;;4398675;32;20251;-58
2020/12/02 14:03:33;;;;;;;97.07;57.20;;;;;;;;;;4420999;32;20706;-59
2020/12/02 14:06:18;;;;;;;107.87;62.43;;;;;;;;;;4433255;32;20363;-58
2020/12/02 14:08:45;;;;;;;114.03;61.57;;;;;;;;;;4437432;32;20219;-59
2020/12/02 14:11:11;;;;;;;117.90;61.73;;;;;;;;;;4432711;32;20247;-59
2020/12/02 14:13:37;;;;;;;129.60;68.93;;;;;;;;;;4433996;32;20272;-60
2020/12/02 14:16:04;;;;;;;126.70;72.87;;;;;;;;;;4432957;32;20591;-59
2020/12/02 14:18:29;;;;;;;128.67;70.13;;;;;;;;;;4431563;32;20284;-59
2020/12/02 14:20:55;;;;;;;131.43;75.33;;;;;;;;;;4439114;32;20354;-59
2020/12/02 14:23:20;;;;;;;135.87;78.00;;;;;;;;;;4434002;32;20360;-59
2020/12/02 14:25:46;;;;;;;140.33;82.23;;;;;;;;;;4431861;32;20377;-60
2020/12/02 14:28:14;;;;;;;148.67;83.23;;;;;;;;;;4420223;32;20376;-59
2020/12/02 14:30:41;;;;;;;138.23;84.60;;;;;;;;;;4426996;32;20316;-59
2020/12/02 14:33:12;;;;;;;146.70;89.73;;;;;;;;;;4438600;32;20216;-58
2020/12/02 14:35:40;;;;;;;276.57;166.40;;;;;;;;;;4446589;32;20250;-59
2020/12/02 14:38:11;;;;;;;273.73;165.60;;;;;;;;;;4432065;32;20221;-58
2020/12/02 14:40:38;;;;;;;202.67;116.40;;;;;;;;;;4418699;32;20613;-58
2020/12/02 14:43:10;;;;;;;198.90;116.87;;;;;;;;;;4433086;32;20193;-59